An Xiu Shan — BRQV — position and weather

sailwx.info

Track history (hours):
 
Tides and Currents Weather Stations Pressure Air Temp Water Temp Dewpoint Dewpoint Depression Visibility Wind Speed Wind Dir Waves Ship Positions

An Xiu Shan

Last reported at 2017-Oct-20 14:00 UTC. Time now 2017-Oct-20 14:46 UTC.
Position N 31°26' E 121°29'.

Length 199 m; draft 7.5 m.

Type: Cargo ship. MMSI: 413195000.

Date/timePositionNaut miles runAvg speedWind from/ knotsBaromVisibWave heightAir tempDewpointWater temp
2017-Oct-20 14:00N 31°26' E 121°29'4 7.3
2017-Oct-20 13:30N 31°29' E 121°26'510.6
2017-Oct-20 13:00N 31°32' E 121°21'611.9
2017-Oct-20 12:30N 31°37' E 121°16'611.9
2017-Oct-20 12:00N 31°41' E 121°11'611.9
2017-Oct-20 11:30N 31°44' E 121°06'611.9
2017-Oct-20 11:00N 31°47' E 120°59'2510.0
2017-Oct-20 08:29N 32°00' E 120°34'  
2017-Oct-16 17:19N 32°01' E 120°24'310.6
2017-Oct-16 17:00N 32°02' E 120°28'28 9.2
2017-Oct-16 13:59N 31°48' E 120°56'510.2
2017-Oct-16 13:30N 31°46' E 121°01'510.3
2017-Oct-16 13:00N 31°44' E 121°07'510.0
2017-Oct-16 12:30N 31°41' E 121°11'5 9.5
2017-Oct-16 12:00N 31°38' E 121°15'4 8.2
2017-Oct-16 11:30N 31°35' E 121°19'0 0.7
2017-Oct-16 11:00N 31°35' E 121°19'0 0.0
2017-Oct-16 10:30N 31°35' E 121°19'0 0.0
2017-Oct-16 09:57N 31°35' E 121°19'0 0.0
2017-Oct-16 09:30N 31°35' E 121°19'0 0.0
2017-Oct-16 09:00N 31°35' E 121°19'1 1.1
2017-Oct-16 08:30N 31°34' E 121°19'3 6.5
2017-Oct-16 08:00N 31°32' E 121°22'4 8.4
2017-Oct-16 07:30N 31°30' E 121°26'2 3.3
2017-Oct-16 07:00N 31°28' E 121°27'3 5.1
2017-Oct-16 06:30N 31°26' E 121°29'4 8.0
2017-Oct-16 06:00N 31°24' E 121°33'4 7.7
2017-Oct-16 05:30N 31°22' E 121°37'4 8.0
2017-Oct-16 05:00N 31°20' E 121°41'4 8.4
2017-Oct-16 04:30N 31°18' E 121°45'5 9.8
2017-Oct-16 04:00N 31°17' E 121°51'510.4
2017-Oct-16 03:30N 31°15' E 121°57'611.1
2017-Oct-16 03:00N 31°14' E 122°03'510.3
2017-Oct-16 02:30N 31°12' E 122°09'5 9.4
2017-Oct-16 02:00N 31°09' E 122°13'5 9.2
2017-Oct-16 01:30N 31°07' E 122°17'5 9.7
2017-Oct-16 01:00N 31°06' E 122°23'510.3
2017-Oct-16 00:29N 31°06' E 122°29'  
Track history (hours):
 
Tides and Currents Weather Stations Pressure Air Temp Water Temp Dewpoint Dewpoint Depression Visibility Wind Speed Wind Dir Waves Ship Positions

An Xiu Shan

Last reported at 2017-Oct-20 14:00 UTC. Time now 2017-Oct-20 14:46 UTC.
Position N 31°26' E 121°29'.

Length 199 m; draft 7.5 m.

Type: Cargo ship. MMSI: 413195000.

Date/timePositionNaut miles runAvg speedWind from/ knotsBaromVisibWave heightAir tempDewpointWater temp
2017-Oct-20 14:00N 31°26' E 121°29'4 7.3
2017-Oct-20 13:30N 31°29' E 121°26'510.6
2017-Oct-20 13:00N 31°32' E 121°21'611.9
2017-Oct-20 12:30N 31°37' E 121°16'611.9
2017-Oct-20 12:00N 31°41' E 121°11'611.9
2017-Oct-20 11:30N 31°44' E 121°06'611.9
2017-Oct-20 11:00N 31°47' E 120°59'2510.0
2017-Oct-20 08:29N 32°00' E 120°34'  
2017-Oct-16 17:19N 32°01' E 120°24'310.6
2017-Oct-16 17:00N 32°02' E 120°28'28 9.2
2017-Oct-16 13:59N 31°48' E 120°56'510.2
2017-Oct-16 13:30N 31°46' E 121°01'510.3
2017-Oct-16 13:00N 31°44' E 121°07'510.0
2017-Oct-16 12:30N 31°41' E 121°11'5 9.5
2017-Oct-16 12:00N 31°38' E 121°15'4 8.2
2017-Oct-16 11:30N 31°35' E 121°19'0 0.7
2017-Oct-16 11:00N 31°35' E 121°19'0 0.0
2017-Oct-16 10:30N 31°35' E 121°19'0 0.0
2017-Oct-16 09:57N 31°35' E 121°19'0 0.0
2017-Oct-16 09:30N 31°35' E 121°19'0 0.0
2017-Oct-16 09:00N 31°35' E 121°19'1 1.1
2017-Oct-16 08:30N 31°34' E 121°19'3 6.5
2017-Oct-16 08:00N 31°32' E 121°22'4 8.4
2017-Oct-16 07:30N 31°30' E 121°26'2 3.3
2017-Oct-16 07:00N 31°28' E 121°27'3 5.1
2017-Oct-16 06:30N 31°26' E 121°29'4 8.0
2017-Oct-16 06:00N 31°24' E 121°33'4 7.7
2017-Oct-16 05:30N 31°22' E 121°37'4 8.0
2017-Oct-16 05:00N 31°20' E 121°41'4 8.4
2017-Oct-16 04:30N 31°18' E 121°45'5 9.8
2017-Oct-16 04:00N 31°17' E 121°51'510.4
2017-Oct-16 03:30N 31°15' E 121°57'611.1
2017-Oct-16 03:00N 31°14' E 122°03'510.3
2017-Oct-16 02:30N 31°12' E 122°09'5 9.4
2017-Oct-16 02:00N 31°09' E 122°13'5 9.2
2017-Oct-16 01:30N 31°07' E 122°17'5 9.7
2017-Oct-16 01:00N 31°06' E 122°23'510.3
2017-Oct-16 00:29N 31°06' E 122°29'  

Dump ship's entire track history